Terminal Aerodrome Forecast
Issued by NWS Lake Charles, LA

Home | Current Version | Previous Version | Text Only | Print | Product List | Glossary On
Versions: 1 2 3 4 5 6 7 8 9 10 11 12 13 14 15 16
028
FTUS44 KLCH 192138 AAA
TAFARA
TAF AMD
KARA 192138Z 1922/2018 02015KT P6SM SKC
     FM192300 01012KT P6SM SKC
     FM200100 VRB04KT P6SM SKC
     FM201500 08006KT P6SM SCT250=

USA.gov is the U.S. government's official web portal to all federal, state and local government web resources and services.